createdAt,value
2022-10-24T00:01:45.870Z,20.40
2022-10-24T00:04:41.696Z,18.90
2022-10-24T00:07:33.380Z,18.83
2022-10-24T00:10:25.426Z,17.83
2022-10-24T00:13:19.678Z,21.60
2022-10-24T00:16:12.728Z,19.23
2022-10-24T00:19:05.336Z,18.40
2022-10-24T00:21:57.601Z,18.00
2022-10-24T00:24:49.662Z,16.10
2022-10-24T00:27:41.898Z,19.32
2022-10-24T00:30:34.020Z,18.27
2022-10-24T00:33:27.022Z,23.35
2022-10-24T00:36:22.445Z,16.50
2022-10-24T00:39:15.090Z,15.40
2022-10-24T00:42:08.474Z,18.83
2022-10-24T00:45:00.597Z,18.70
2022-10-24T00:47:53.022Z,19.63
2022-10-24T00:50:46.342Z,19.00
2022-10-24T00:53:44.610Z,17.60
2022-10-24T00:56:41.260Z,19.90
2022-10-24T00:59:35.112Z,19.07
2022-10-24T01:02:27.512Z,16.67
2022-10-24T01:05:20.716Z,19.47
2022-10-24T01:08:23.440Z,18.47
2022-10-24T01:14:20.810Z,19.90
2022-10-24T01:17:20.732Z,19.60
2022-10-24T01:20:40.177Z,19.03
2022-10-24T01:24:07.777Z,19.83
2022-10-24T01:27:09.467Z,22.73
2022-10-24T01:30:07.398Z,17.77
2022-10-24T01:33:03.748Z,19.60
2022-10-24T01:36:01.539Z,18.97
2022-10-24T01:39:00.480Z,20.77
2022-10-24T01:41:55.794Z,17.70
2022-10-24T01:44:51.272Z,20.70
2022-10-24T01:47:47.859Z,19.17
2022-10-24T01:50:43.802Z,19.90
2022-10-24T01:53:38.165Z,20.00
2022-10-24T01:56:30.439Z,21.40
2022-10-24T01:59:43.476Z,21.02
2022-10-24T02:02:41.011Z,20.30
2022-10-24T02:05:38.409Z,21.43
2022-10-24T02:08:35.367Z,20.93
2022-10-24T02:11:27.693Z,18.83
2022-10-24T02:14:25.774Z,17.83
2022-10-24T02:17:19.069Z,18.47
2022-10-24T02:20:14.789Z,19.43
2022-10-24T02:23:12.925Z,18.67
2022-10-24T02:26:08.590Z,17.20
2022-10-24T02:29:04.093Z,20.03
2022-10-24T02:31:59.581Z,20.57
2022-10-24T02:34:53.525Z,17.90
2022-10-24T02:37:48.363Z,17.70
2022-10-24T02:40:41.700Z,17.73
2022-10-24T02:43:34.749Z,17.83
2022-10-24T02:46:28.990Z,17.63
2022-10-24T02:49:21.275Z,16.83
2022-10-24T02:52:13.745Z,19.40
2022-10-24T02:57:57.615Z,15.10
2022-10-24T03:00:50.252Z,18.98
2022-10-24T03:03:42.544Z,17.77
2022-10-24T03:06:34.898Z,15.17
2022-10-24T03:09:27.133Z,19.98
2022-10-24T03:12:19.341Z,15.23
2022-10-24T03:15:13.791Z,16.65
2022-10-24T03:18:06.152Z,17.97
2022-10-24T03:20:58.351Z,15.20
2022-10-24T03:23:51.198Z,18.70
2022-10-24T03:26:43.220Z,13.63
2022-10-24T03:29:35.750Z,17.15
2022-10-24T03:35:19.904Z,15.93
2022-10-24T03:38:11.934Z,14.77
2022-10-24T03:41:03.572Z,18.50
2022-10-24T03:43:55.254Z,15.43
2022-10-24T03:46:47.430Z,19.20
2022-10-24T03:49:39.272Z,17.02
2022-10-24T03:52:31.290Z,14.00
2022-10-24T03:55:23.729Z,14.50
2022-10-24T03:58:15.710Z,13.60
2022-10-24T04:01:10.562Z,14.85
2022-10-24T04:04:03.308Z,14.77
2022-10-24T04:06:55.541Z,14.57
2022-10-24T04:09:47.412Z,13.28
2022-10-24T04:12:39.511Z,17.43
2022-10-24T04:15:32.316Z,13.93
2022-10-24T04:18:24.165Z,14.30
2022-10-24T04:21:20.696Z,19.20
2022-10-24T04:24:14.282Z,23.10
2022-10-24T04:27:05.964Z,20.62
2022-10-24T04:29:57.210Z,19.70
2022-10-24T04:32:49.558Z,13.30
2022-10-24T04:35:42.002Z,12.60
2022-10-24T04:38:34.644Z,15.50
2022-10-24T04:41:26.473Z,22.32
2022-10-24T04:44:18.884Z,20.37
2022-10-24T04:47:10.669Z,18.20
2022-10-24T04:50:03.183Z,14.38
2022-10-24T04:52:55.212Z,27.53
2022-10-24T04:55:47.712Z,23.12
2022-10-24T04:58:39.331Z,15.23
2022-10-24T05:01:31.347Z,17.00
2022-10-24T05:04:23.747Z,21.57
2022-10-24T05:07:16.191Z,26.33
2022-10-24T05:10:09.812Z,27.90
2022-10-24T05:13:01.662Z,17.50
2022-10-24T05:15:53.789Z,16.65
2022-10-24T05:18:45.530Z,20.87
2022-10-24T05:21:37.582Z,14.70
2022-10-24T05:24:30.631Z,22.33
2022-10-24T05:27:24.923Z,21.67
2022-10-24T05:30:17.312Z,17.30
2022-10-24T05:33:09.794Z,15.30
2022-10-24T05:36:02.399Z,15.05
2022-10-24T05:38:54.682Z,16.27
2022-10-24T05:41:47.349Z,19.73
2022-10-24T05:44:40.633Z,26.97
2022-10-24T05:47:32.237Z,20.10
2022-10-24T05:50:24.643Z,27.25
2022-10-24T05:53:16.678Z,20.55
2022-10-24T05:56:10.086Z,17.60
2022-10-24T05:59:01.967Z,17.50
2022-10-24T06:01:55.278Z,20.97
2022-10-24T06:04:48.487Z,20.63
2022-10-24T06:10:29.688Z,17.97
2022-10-24T06:13:21.926Z,17.37
2022-10-24T06:16:14.845Z,16.20
2022-10-24T06:19:07.516Z,22.40
2022-10-24T06:21:59.928Z,21.03
2022-10-24T06:24:51.773Z,16.77
2022-10-24T06:27:43.683Z,33.23
2022-10-24T06:30:35.955Z,25.10
2022-10-24T06:33:27.985Z,29.90
2022-10-24T06:36:19.842Z,20.02
2022-10-24T06:39:12.253Z,19.92
2022-10-24T06:42:04.800Z,18.55
2022-10-24T06:44:56.251Z,19.80
2022-10-24T06:47:51.757Z,16.60
2022-10-24T06:50:46.896Z,15.00
2022-10-24T06:53:39.137Z,15.95
2022-10-24T06:56:30.996Z,21.12
2022-10-24T06:59:23.440Z,14.83
2022-10-24T07:02:18.051Z,17.23
2022-10-24T07:05:13.073Z,29.00
2022-10-24T07:08:05.505Z,17.00
2022-10-24T07:10:57.502Z,18.35
2022-10-24T07:13:49.737Z,13.63
2022-10-24T07:16:42.727Z,15.88
2022-10-24T07:19:37.343Z,13.97
2022-10-24T07:22:32.581Z,15.00
2022-10-24T07:25:26.231Z,14.67
2022-10-24T07:31:09.750Z,11.87
2022-10-24T07:34:03.743Z,14.10
2022-10-24T07:36:55.619Z,15.03
2022-10-24T07:39:47.446Z,22.07
2022-10-24T07:42:39.476Z,12.55
2022-10-24T07:45:32.556Z,12.68
2022-10-24T07:48:24.211Z,10.40
2022-10-24T07:51:17.989Z,14.30
2022-10-24T07:54:11.380Z,13.30
2022-10-24T07:57:03.527Z,11.27
2022-10-24T07:59:55.487Z,12.60
2022-10-24T08:05:42.951Z,12.93
2022-10-24T08:08:37.395Z,10.17
2022-10-24T08:11:33.108Z,13.17
2022-10-24T08:14:25.390Z,14.03
2022-10-24T08:17:21.730Z,14.50
2022-10-24T08:20:16.634Z,13.10
2022-10-24T08:23:09.707Z,15.33
2022-10-24T08:26:02.072Z,10.67
2022-10-24T08:28:55.555Z,10.67
2022-10-24T08:31:50.154Z,9.60
2022-10-24T08:34:42.917Z,9.47
2022-10-24T08:40:29.813Z,12.07
2022-10-24T08:43:23.354Z,9.93
2022-10-24T08:46:34.147Z,10.83
2022-10-24T08:49:39.287Z,15.93
2022-10-24T13:09:08.201Z,9.27
2022-10-24T13:12:20.160Z,12.13
2022-10-24T13:19:11.126Z,10.60
2022-10-24T13:21:58.313Z,11.57
2022-10-24T13:24:48.495Z,9.43
2022-10-24T13:27:37.805Z,8.40
2022-10-24T13:30:58.060Z,5.83
2022-10-24T13:33:52.780Z,9.30
2022-10-24T13:36:37.018Z,7.80
2022-10-24T13:39:34.293Z,9.53
2022-10-24T13:42:36.318Z,8.70
2022-10-24T13:45:33.274Z,8.43
2022-10-24T13:48:14.411Z,11.00
2022-10-24T13:51:10.721Z,10.67
2022-10-24T13:53:55.870Z,8.30
2022-10-24T13:56:47.753Z,8.93
2022-10-24T13:59:48.583Z,9.20
2022-10-24T14:02:32.605Z,7.77
2022-10-24T14:05:29.766Z,8.47
2022-10-24T14:08:21.964Z,10.23
2022-10-24T14:11:01.762Z,9.17
2022-10-24T14:13:52.145Z,10.50
2022-10-24T14:16:35.668Z,7.10
2022-10-24T14:19:28.369Z,10.07
2022-10-24T14:22:07.310Z,7.58
2022-10-24T14:24:48.359Z,12.10
2022-10-24T14:27:30.430Z,9.00
2022-10-24T14:30:34.514Z,9.20
2022-10-24T14:33:33.100Z,9.47
2022-10-24T14:36:19.517Z,8.77
2022-10-24T14:39:07.170Z,9.47
2022-10-24T14:41:50.909Z,7.70
2022-10-24T14:44:37.398Z,8.20
2022-10-24T14:47:31.844Z,9.50
2022-10-24T14:53:02.905Z,9.73
2022-10-24T14:55:42.510Z,9.77
2022-10-24T14:58:43.716Z,10.87
2022-10-24T15:01:29.123Z,10.10
2022-10-24T15:04:08.305Z,14.17
2022-10-24T15:06:45.837Z,9.67
2022-10-24T15:09:30.073Z,10.73
2022-10-24T15:12:15.220Z,12.70
2022-10-24T15:14:52.342Z,11.93
2022-10-24T15:17:46.690Z,13.70
2022-10-24T15:20:36.474Z,13.30
2022-10-24T15:23:35.100Z,25.65
2022-10-24T15:26:25.691Z,23.10
2022-10-24T15:29:33.582Z,45.67
2022-10-24T15:32:18.520Z,42.30
2022-10-24T15:34:59.039Z,39.23
2022-10-24T15:37:32.175Z,55.80
2022-10-24T15:40:14.487Z,56.83
2022-10-24T15:42:47.810Z,47.90
2022-10-24T15:45:24.528Z,40.20
2022-10-24T15:47:58.063Z,59.90
2022-10-24T15:50:31.339Z,52.23
2022-10-24T15:53:08.049Z,87.07
2022-10-24T15:55:41.619Z,58.23
2022-10-24T15:58:17.677Z,55.63
2022-10-24T16:00:51.710Z,57.23
2022-10-24T16:03:25.730Z,53.37
2022-10-24T16:06:00.334Z,39.83
2022-10-24T16:08:33.517Z,43.57
2022-10-24T16:11:09.223Z,41.13
2022-10-24T16:13:43.313Z,31.20
2022-10-24T16:16:18.103Z,35.13
2022-10-24T16:18:54.238Z,43.57
2022-10-24T16:21:29.817Z,39.90
2022-10-24T16:24:06.285Z,36.07
2022-10-24T16:26:39.436Z,47.03
2022-10-24T16:29:12.461Z,42.37
2022-10-24T16:31:47.159Z,48.73
2022-10-24T16:34:20.925Z,53.60
2022-10-24T16:37:00.031Z,39.40
2022-10-24T16:39:34.614Z,44.03
2022-10-24T16:42:08.061Z,42.40
2022-10-24T16:44:41.332Z,45.63
2022-10-24T16:47:14.584Z,45.93
2022-10-24T16:49:47.937Z,47.47
2022-10-24T16:52:20.972Z,45.27
2022-10-24T16:54:54.733Z,44.53
2022-10-24T16:57:28.323Z,38.63
2022-10-24T17:00:06.477Z,36.13
2022-10-24T17:02:40.575Z,38.97
2022-10-24T17:05:14.410Z,34.83
2022-10-24T17:07:48.623Z,43.33
2022-10-24T17:10:25.742Z,50.00
2022-10-24T17:13:03.032Z,50.63
2022-10-24T17:15:42.301Z,44.87
2022-10-24T17:18:15.667Z,51.10
2022-10-24T17:20:49.878Z,48.93
2022-10-24T17:23:24.782Z,54.43
2022-10-24T17:26:02.619Z,56.53
2022-10-24T17:28:36.360Z,56.30
2022-10-24T17:31:10.587Z,56.40
2022-10-24T17:33:44.657Z,52.70
2022-10-24T17:36:25.828Z,63.37
2022-10-24T17:39:10.190Z,61.30
2022-10-24T17:41:45.822Z,62.33
2022-10-24T17:44:23.103Z,52.30
2022-10-24T17:46:58.351Z,54.80
2022-10-24T17:49:35.766Z,49.13
2022-10-24T17:52:21.004Z,54.18
2022-10-24T17:54:54.403Z,54.00
2022-10-24T17:57:29.948Z,45.10
2022-10-24T18:00:08.807Z,45.67
2022-10-24T18:05:42.614Z,45.27
2022-10-24T18:08:16.613Z,49.97
2022-10-24T18:10:50.618Z,46.20
2022-10-24T18:13:24.570Z,51.07
2022-10-24T18:15:58.146Z,52.20
2022-10-24T18:18:32.396Z,50.43
2022-10-24T18:21:12.531Z,58.47
2022-10-24T18:23:46.818Z,55.53
2022-10-24T18:26:22.787Z,52.90
2022-10-24T18:28:58.328Z,51.30
2022-10-24T18:31:34.394Z,52.97
2022-10-24T18:34:08.777Z,52.07
2022-10-24T18:36:45.246Z,50.63
2022-10-24T18:39:19.213Z,44.87
2022-10-24T18:41:57.962Z,54.55
2022-10-24T18:44:34.957Z,53.43
2022-10-24T18:47:12.580Z,55.67
2022-10-24T18:49:47.259Z,54.87
2022-10-24T18:52:32.234Z,48.53
2022-10-24T18:55:18.091Z,55.93
2022-10-24T18:57:52.786Z,51.63
2022-10-24T19:00:29.414Z,53.03
2022-10-24T19:03:19.400Z,51.93
2022-10-24T19:06:01.132Z,52.33
2022-10-24T19:08:36.770Z,50.90
2022-10-24T19:11:16.402Z,52.83
2022-10-24T19:13:51.048Z,48.63
2022-10-24T19:16:30.057Z,54.50
2022-10-24T19:19:07.615Z,49.40
2022-10-24T19:21:42.221Z,48.63
2022-10-24T19:24:16.875Z,48.60
2022-10-24T19:26:51.135Z,50.30
2022-10-24T19:29:25.302Z,62.27
2022-10-24T19:31:59.065Z,56.33
2022-10-24T19:34:33.579Z,71.20
2022-10-24T19:37:07.936Z,61.93
2022-10-24T19:39:41.683Z,64.90
2022-10-24T19:42:15.340Z,57.60
2022-10-24T19:44:54.717Z,59.63
2022-10-24T19:47:28.654Z,55.37
2022-10-24T19:50:02.122Z,60.17
2022-10-24T19:52:36.369Z,58.80
2022-10-24T19:55:11.394Z,63.87
2022-10-24T19:57:45.073Z,60.33
2022-10-24T20:00:21.259Z,76.40
2022-10-24T20:02:54.691Z,63.40
2022-10-24T20:05:28.255Z,70.10
2022-10-24T20:08:01.837Z,64.93
2022-10-24T20:10:35.585Z,68.03
2022-10-24T20:13:08.984Z,74.60
2022-10-24T20:15:42.865Z,78.70
2022-10-24T20:18:16.389Z,88.37
2022-10-24T20:20:50.289Z,82.87
2022-10-24T20:23:25.355Z,79.43
2022-10-24T20:26:04.801Z,89.37
2022-10-24T20:28:41.197Z,87.10
2022-10-24T20:31:21.366Z,89.90
2022-10-24T20:33:55.186Z,81.33
2022-10-24T20:36:28.884Z,76.73
2022-10-24T20:39:02.589Z,84.60
2022-10-24T20:41:36.912Z,89.63
2022-10-24T20:44:10.801Z,86.50
2022-10-24T20:46:44.365Z,87.90
2022-10-24T20:49:17.675Z,102.13
2022-10-24T20:51:51.189Z,97.80
2022-10-24T20:54:25.417Z,89.60
2022-10-24T20:56:59.018Z,90.30
2022-10-24T20:59:32.621Z,85.03
2022-10-24T21:02:08.385Z,83.97
2022-10-24T21:04:41.872Z,85.83
2022-10-24T21:07:15.771Z,88.03
2022-10-24T21:09:50.231Z,95.80
2022-10-24T21:12:23.684Z,112.53
2022-10-24T21:14:57.286Z,127.33
2022-10-24T21:17:30.685Z,111.40
2022-10-24T21:20:04.919Z,88.40
2022-10-24T21:22:38.494Z,105.23
2022-10-24T21:25:14.055Z,105.43
2022-10-24T21:27:47.995Z,100.20
2022-10-24T21:30:22.053Z,89.27
2022-10-24T21:32:55.683Z,92.80
2022-10-24T21:35:29.657Z,77.23
2022-10-24T21:38:03.369Z,73.37
2022-10-24T21:40:36.895Z,68.13
2022-10-24T21:43:10.401Z,67.03
2022-10-24T21:45:43.807Z,58.70
2022-10-24T21:48:18.076Z,58.10
2022-10-24T21:50:53.420Z,51.37
2022-10-24T21:53:27.218Z,54.87
2022-10-24T21:56:07.682Z,54.77
2022-10-24T21:58:42.149Z,51.07
2022-10-24T22:01:19.233Z,47.60
2022-10-24T22:03:53.212Z,51.13
2022-10-24T22:06:27.447Z,48.37
2022-10-24T22:09:01.075Z,49.27
2022-10-24T22:11:36.637Z,46.83
2022-10-24T22:14:12.566Z,44.13
2022-10-24T22:16:45.942Z,43.03
2022-10-24T22:19:21.247Z,48.40
2022-10-24T22:21:55.124Z,43.60
2022-10-24T22:24:28.556Z,43.57
2022-10-24T22:27:02.079Z,41.67
2022-10-24T22:29:35.541Z,43.57
2022-10-24T22:32:14.222Z,43.07
2022-10-24T22:34:50.006Z,38.37
2022-10-24T22:37:29.514Z,39.23
2022-10-24T22:40:05.145Z,41.17
2022-10-24T22:42:40.085Z,37.90
2022-10-24T22:45:17.437Z,31.73
2022-10-24T22:48:16.643Z,39.97
2022-10-24T22:50:54.944Z,35.57
2022-10-24T22:53:32.115Z,33.87
2022-10-24T22:56:27.697Z,33.83
2022-10-24T22:59:03.020Z,31.90
2022-10-24T23:01:57.076Z,34.63
2022-10-24T23:04:40.561Z,32.63
2022-10-24T23:07:27.640Z,33.87
2022-10-24T23:10:01.944Z,33.23
2022-10-24T23:12:37.442Z,29.80
2022-10-24T23:15:16.366Z,32.90
2022-10-24T23:17:52.097Z,29.70
2022-10-24T23:20:34.389Z,31.10
2022-10-24T23:26:09.374Z,31.10
2022-10-24T23:28:51.977Z,27.87
2022-10-24T23:31:27.984Z,26.80
2022-10-24T23:34:03.683Z,26.50
2022-10-24T23:36:40.866Z,29.43
2022-10-24T23:39:16.543Z,29.37
2022-10-24T23:41:51.522Z,32.60
2022-10-24T23:44:26.215Z,27.53
2022-10-24T23:47:04.785Z,27.90
2022-10-24T23:49:45.556Z,29.07
2022-10-24T23:52:27.928Z,27.43
2022-10-24T23:57:35.023Z,28.50
